createdAt,value
2023-03-02T00:02:41.477Z,1.32
2023-03-02T00:05:50.528Z,1.23
2023-03-02T00:09:01.664Z,1.14
2023-03-02T00:12:08.507Z,1.08
2023-03-02T00:15:16.926Z,0.99
2023-03-02T00:18:23.103Z,0.86
2023-03-02T00:21:29.209Z,1.06
2023-03-02T00:24:37.195Z,1.07
2023-03-02T00:27:43.805Z,1.06
2023-03-02T00:30:51.343Z,1.03
2023-03-02T00:33:57.507Z,0.86
2023-03-02T00:37:10.356Z,0.74
2023-03-02T00:40:18.036Z,0.73
2023-03-02T00:43:30.221Z,0.84
2023-03-02T00:46:39.297Z,0.82
2023-03-02T00:49:49.323Z,0.87
2023-03-02T00:52:54.322Z,0.91
2023-03-02T00:56:02.246Z,1.09
2023-03-02T00:59:27.676Z,0.99
2023-03-02T01:02:38.343Z,0.83
2023-03-02T01:05:45.135Z,0.86
2023-03-02T01:08:53.839Z,0.77
2023-03-02T01:12:02.711Z,0.92
2023-03-02T01:15:12.256Z,0.90
2023-03-02T01:18:19.678Z,0.84
2023-03-02T01:21:30.811Z,0.81
2023-03-02T01:24:38.493Z,0.78
2023-03-02T01:27:46.598Z,0.74
2023-03-02T01:30:55.578Z,0.68
2023-03-02T01:34:03.095Z,0.73
2023-03-02T01:37:12.647Z,0.71
2023-03-02T01:40:26.035Z,0.75
2023-03-02T01:43:34.227Z,0.71
2023-03-02T01:46:40.463Z,0.79
2023-03-02T01:49:59.074Z,0.78
2023-03-02T01:53:12.265Z,0.60
2023-03-02T01:56:21.328Z,0.55
2023-03-02T01:59:30.919Z,0.47
2023-03-02T02:02:42.923Z,0.46
2023-03-02T02:06:00.962Z,0.49
2023-03-02T02:09:09.975Z,0.48
2023-03-02T02:12:19.353Z,0.49
2023-03-02T02:15:34.770Z,0.51
2023-03-02T02:18:44.204Z,0.34
2023-03-02T02:21:52.268Z,0.45
2023-03-02T02:25:01.400Z,0.38
2023-03-02T02:28:11.060Z,0.44
2023-03-02T02:31:30.174Z,0.34
2023-03-02T02:34:42.554Z,0.28
2023-03-02T02:37:55.173Z,0.16
2023-03-02T02:41:11.685Z,0.13
2023-03-02T02:44:20.944Z,0.00
2023-03-02T02:47:27.608Z,0.15
2023-03-02T02:50:41.071Z,0.03
2023-03-02T02:54:01.473Z,0.20
2023-03-02T02:57:13.132Z,0.19
2023-03-02T03:00:29.181Z,0.06
2023-03-02T03:03:39.523Z,0.07
2023-03-02T03:06:55.076Z,-0.05
2023-03-02T03:10:12.660Z,-0.24
2023-03-02T03:13:19.509Z,-0.17
2023-03-02T03:16:28.474Z,0.00
2023-03-02T03:19:36.653Z,-0.06
2023-03-02T03:22:43.458Z,-0.05
2023-03-02T03:25:51.102Z,-0.11
2023-03-02T03:29:00.829Z,-0.15
2023-03-02T03:32:11.296Z,-0.25
2023-03-02T03:35:19.084Z,-0.12
2023-03-02T03:38:28.775Z,-0.12
2023-03-02T03:41:41.587Z,-0.01
2023-03-02T03:44:50.254Z,0.13
2023-03-02T03:47:58.848Z,0.02
2023-03-02T03:51:09.011Z,-0.02
2023-03-02T03:54:18.170Z,0.03
2023-03-02T03:57:27.502Z,-0.04
2023-03-02T04:00:35.725Z,-0.14
2023-03-02T04:03:44.387Z,-0.18
2023-03-02T04:06:54.125Z,-0.24
2023-03-02T04:10:04.628Z,-0.15
2023-03-02T04:13:15.456Z,-0.31
2023-03-02T04:16:22.291Z,-0.44
2023-03-02T04:19:29.216Z,-0.38
2023-03-02T04:22:41.314Z,-0.36
2023-03-02T04:25:48.527Z,-0.46
2023-03-02T04:28:58.046Z,-0.60
2023-03-02T04:32:04.111Z,-0.61
2023-03-02T04:35:16.555Z,-0.72
2023-03-02T04:38:23.344Z,-0.75
2023-03-02T04:41:34.130Z,-0.76
2023-03-02T04:44:40.415Z,-0.77
2023-03-02T04:47:49.111Z,-0.81
2023-03-02T04:50:55.646Z,-0.87
2023-03-02T04:54:06.551Z,-0.75
2023-03-02T04:57:13.558Z,-0.65
2023-03-02T05:00:22.423Z,-0.52
2023-03-02T05:03:30.195Z,-0.66
2023-03-02T05:06:40.483Z,-0.58
2023-03-02T05:09:48.075Z,-0.54
2023-03-02T05:13:04.112Z,-0.39
2023-03-02T05:16:11.648Z,-0.39
2023-03-02T05:19:19.978Z,-0.27
2023-03-02T05:22:30.350Z,-0.27
2023-03-02T05:25:40.498Z,-0.45
2023-03-02T05:28:49.873Z,-0.52
2023-03-02T05:31:58.780Z,-0.68
2023-03-02T05:35:07.980Z,-0.80
2023-03-02T05:38:17.239Z,-0.73
2023-03-02T05:41:24.683Z,-0.76
2023-03-02T05:44:35.251Z,-0.72
2023-03-02T05:47:44.397Z,-0.65
2023-03-02T05:50:52.650Z,-0.67
2023-03-02T05:53:59.068Z,-0.70
2023-03-02T05:57:08.488Z,-0.68
2023-03-02T06:00:17.315Z,-0.49
2023-03-02T06:03:22.721Z,-0.16
2023-03-02T06:06:29.070Z,-0.12
2023-03-02T06:09:36.374Z,0.02
2023-03-02T06:12:42.513Z,0.17
2023-03-02T06:15:51.646Z,0.28
2023-03-02T06:18:56.826Z,0.46
2023-03-02T06:22:04.475Z,0.69
2023-03-02T06:25:10.127Z,0.79
2023-03-02T06:28:19.817Z,0.98
2023-03-02T06:31:25.285Z,1.11
2023-03-02T06:34:33.531Z,1.18
2023-03-02T06:37:41.805Z,1.33
2023-03-02T06:40:50.876Z,1.38
2023-03-02T06:43:56.433Z,1.41
2023-03-02T06:47:00.970Z,1.61
2023-03-02T06:50:06.342Z,1.87
2023-03-02T06:53:12.878Z,2.11
2023-03-02T06:56:16.990Z,2.70
2023-03-02T06:59:20.876Z,3.10
2023-03-02T07:02:25.150Z,2.79
2023-03-02T07:05:32.826Z,2.46
2023-03-02T07:08:36.836Z,2.30
2023-03-02T07:11:41.736Z,2.32
2023-03-02T07:14:45.831Z,2.31
2023-03-02T07:17:50.341Z,2.36
2023-03-02T07:20:54.880Z,2.45
2023-03-02T07:24:01.997Z,2.45
2023-03-02T07:27:05.868Z,2.51
2023-03-02T07:30:11.751Z,2.71
2023-03-02T07:33:16.580Z,2.77
2023-03-02T07:36:22.340Z,2.83
2023-03-02T07:39:25.848Z,2.98
2023-03-02T07:42:32.869Z,3.14
2023-03-02T07:45:39.640Z,3.31
2023-03-02T07:48:45.300Z,3.77
2023-03-02T07:51:51.239Z,4.71
2023-03-02T07:54:57.694Z,5.61
2023-03-02T07:58:01.049Z,7.21
2023-03-02T08:01:05.643Z,9.11
2023-03-02T08:04:10.233Z,11.27
2023-03-02T08:07:14.780Z,11.42
2023-03-02T08:10:29.305Z,10.95
2023-03-02T08:13:34.381Z,12.09
2023-03-02T08:16:39.339Z,9.90
2023-03-02T08:19:43.246Z,11.18
2023-03-02T08:22:47.568Z,10.22
2023-03-02T08:25:53.391Z,10.27
2023-03-02T08:29:00.306Z,10.81
2023-03-02T08:32:04.721Z,12.24
2023-03-02T08:35:10.491Z,14.34
2023-03-02T08:38:14.450Z,12.11
2023-03-02T08:41:20.318Z,11.69
2023-03-02T08:44:23.402Z,12.89
2023-03-02T08:47:27.445Z,15.36
2023-03-02T08:50:33.429Z,17.57
2023-03-02T08:53:39.391Z,15.73
2023-03-02T08:56:44.083Z,13.28
2023-03-02T08:59:48.649Z,12.05
2023-03-02T09:02:52.253Z,10.98
2023-03-02T09:05:56.592Z,9.87
2023-03-02T09:08:59.994Z,9.03
2023-03-02T09:12:05.749Z,7.97
2023-03-02T09:15:09.966Z,8.03
2023-03-02T09:18:15.037Z,7.54
2023-03-02T09:21:19.830Z,7.59
2023-03-02T09:24:25.839Z,7.53
2023-03-02T09:27:29.653Z,7.65
2023-03-02T09:30:34.211Z,7.57
2023-03-02T09:33:38.303Z,7.27
2023-03-02T09:36:42.726Z,7.21
2023-03-02T09:39:49.702Z,7.17
2023-03-02T09:43:04.956Z,7.11
2023-03-02T09:46:29.487Z,7.33
2023-03-02T09:49:33.725Z,7.51
2023-03-02T09:52:40.955Z,7.73
2023-03-02T09:55:46.412Z,7.81
2023-03-02T09:58:59.738Z,7.86
2023-03-02T10:02:21.684Z,7.93
2023-03-02T10:05:36.697Z,7.97
2023-03-02T10:08:41.322Z,8.04
2023-03-02T10:11:49.389Z,8.05
2023-03-02T10:14:59.796Z,8.01
2023-03-02T10:18:23.798Z,8.27
2023-03-02T10:21:37.927Z,8.24
2023-03-02T10:25:07.530Z,8.31
2023-03-02T10:28:13.909Z,8.40
2023-03-02T10:31:24.663Z,8.74
2023-03-02T10:34:32.288Z,8.67
2023-03-02T10:37:36.885Z,8.74
2023-03-02T10:40:44.361Z,8.87
2023-03-02T10:43:51.623Z,8.88
2023-03-02T10:46:55.598Z,8.93
2023-03-02T10:50:00.125Z,8.82
2023-03-02T10:53:05.338Z,8.91
2023-03-02T10:56:19.230Z,8.98
2023-03-02T10:59:26.412Z,9.15
2023-03-02T11:02:33.434Z,9.33
2023-03-02T11:05:38.091Z,9.38
2023-03-02T11:08:42.383Z,9.46
2023-03-02T11:12:04.241Z,9.67
2023-03-02T11:15:35.346Z,9.85
2023-03-02T11:18:43.712Z,10.17
2023-03-02T11:21:49.379Z,11.16
2023-03-02T11:24:56.472Z,13.73
2023-03-02T11:28:06.054Z,16.62
2023-03-02T11:31:16.233Z,18.49
2023-03-02T11:34:27.886Z,22.49
2023-03-02T11:37:46.067Z,21.90
2023-03-02T11:40:54.181Z,24.19
2023-03-02T11:44:00.643Z,26.22
2023-03-02T11:47:05.933Z,25.85
2023-03-02T11:50:12.912Z,25.94
2023-03-02T11:53:20.812Z,21.59
2023-03-02T11:56:25.787Z,22.46
2023-03-02T11:59:30.897Z,20.83
2023-03-02T12:02:34.115Z,19.70
2023-03-02T12:05:40.794Z,21.13
2023-03-02T12:08:46.567Z,23.09
2023-03-02T12:12:02.246Z,22.20
2023-03-02T12:15:26.384Z,24.22
2023-03-02T12:18:32.081Z,24.99
2023-03-02T12:21:40.488Z,24.90
2023-03-02T12:24:46.829Z,26.26
2023-03-02T12:27:52.859Z,26.47
2023-03-02T12:31:02.299Z,23.74
2023-03-02T12:34:22.449Z,25.70
2023-03-02T12:37:27.592Z,25.35
2023-03-02T12:40:51.048Z,25.92
2023-03-02T12:44:07.286Z,26.75
2023-03-02T12:47:16.656Z,25.06
2023-03-02T12:50:25.740Z,28.38
2023-03-02T12:53:29.887Z,26.55
2023-03-02T12:56:36.050Z,22.36
2023-03-02T12:59:40.154Z,22.49
2023-03-02T13:02:49.016Z,21.73
2023-03-02T13:05:52.600Z,23.58
2023-03-02T13:08:57.752Z,20.75
2023-03-02T13:12:01.878Z,19.19
2023-03-02T13:15:14.784Z,19.01
2023-03-02T13:18:20.316Z,17.82
2023-03-02T13:21:30.073Z,17.46
2023-03-02T13:24:36.208Z,15.96
2023-03-02T13:27:40.094Z,15.94
2023-03-02T13:30:48.148Z,16.45
2023-03-02T13:33:55.084Z,18.12
2023-03-02T13:36:59.603Z,19.02
2023-03-02T13:40:06.090Z,19.61
2023-03-02T13:43:25.719Z,20.30
2023-03-02T13:46:36.361Z,19.88
2023-03-02T13:49:41.370Z,17.81
2023-03-02T13:52:47.284Z,18.52
2023-03-02T13:55:53.357Z,16.81
2023-03-02T13:59:01.677Z,16.44
2023-03-02T14:02:20.408Z,18.43
2023-03-02T14:05:28.188Z,20.61
2023-03-02T14:08:33.284Z,21.04
2023-03-02T14:11:46.942Z,19.83
2023-03-02T14:14:53.254Z,18.29
2023-03-02T14:17:59.639Z,19.17
2023-03-02T14:21:04.715Z,16.02
2023-03-02T14:24:11.680Z,14.25
2023-03-02T14:27:17.765Z,13.99
2023-03-02T14:30:23.097Z,12.79
2023-03-02T14:33:28.718Z,12.31
2023-03-02T14:36:35.066Z,12.63
2023-03-02T14:39:55.260Z,12.34
2023-03-02T14:43:01.392Z,12.11
2023-03-02T14:46:06.020Z,11.99
2023-03-02T14:49:10.466Z,11.67
2023-03-02T14:52:31.344Z,11.63
2023-03-02T14:55:37.028Z,11.53
2023-03-02T14:58:42.267Z,11.53
2023-03-02T15:01:46.847Z,11.59
2023-03-02T15:04:56.420Z,11.65
2023-03-02T15:08:01.693Z,11.40
2023-03-02T15:11:08.848Z,11.31
2023-03-02T15:14:15.211Z,11.32
2023-03-02T15:17:19.361Z,11.23
2023-03-02T15:20:26.242Z,11.15
2023-03-02T15:23:32.567Z,11.07
2023-03-02T15:26:37.515Z,10.95
2023-03-02T15:29:47.248Z,10.90
2023-03-02T15:32:54.325Z,10.93
2023-03-02T15:35:59.325Z,10.93
2023-03-02T15:39:04.897Z,10.87
2023-03-02T15:42:12.051Z,10.75
2023-03-02T15:45:17.453Z,10.69
2023-03-02T15:48:21.530Z,10.57
2023-03-02T15:51:27.556Z,10.48
2023-03-02T15:54:32.624Z,10.37
2023-03-02T15:57:41.194Z,10.21
2023-03-02T16:00:49.107Z,10.14
2023-03-02T16:04:00.361Z,10.06
2023-03-02T16:07:04.894Z,9.97
2023-03-02T16:10:15.723Z,9.87
2023-03-02T16:13:24.190Z,9.72
2023-03-02T16:16:30.151Z,9.66
2023-03-02T16:19:35.522Z,9.58
2023-03-02T16:22:44.099Z,9.43
2023-03-02T16:25:50.884Z,9.32
2023-03-02T16:28:56.580Z,9.16
2023-03-02T16:32:04.151Z,8.95
2023-03-02T16:35:11.561Z,8.85
2023-03-02T16:38:17.871Z,8.80
2023-03-02T16:41:24.244Z,8.69
2023-03-02T16:44:30.224Z,8.50
2023-03-02T16:47:36.909Z,8.53
2023-03-02T16:50:45.533Z,8.34
2023-03-02T16:53:52.383Z,8.26
2023-03-02T16:56:57.617Z,8.13
2023-03-02T17:00:12.583Z,8.01
2023-03-02T17:03:18.719Z,7.90
2023-03-02T17:06:24.535Z,7.81
2023-03-02T17:09:29.366Z,7.72
2023-03-02T17:12:35.064Z,7.66
2023-03-02T17:15:41.874Z,7.60
2023-03-02T17:18:47.877Z,7.52
2023-03-02T17:21:57.327Z,7.95
2023-03-02T17:25:07.316Z,8.43
2023-03-02T17:28:15.911Z,8.41
2023-03-02T17:31:23.005Z,8.42
2023-03-02T17:34:33.563Z,8.18
2023-03-02T17:37:43.619Z,8.05
2023-03-02T17:40:50.251Z,7.82
2023-03-02T17:43:57.844Z,8.09
2023-03-02T17:47:07.322Z,8.11
2023-03-02T17:50:15.383Z,7.99
2023-03-02T17:53:21.103Z,7.95
2023-03-02T17:56:31.098Z,7.86
2023-03-02T17:59:37.871Z,7.70
2023-03-02T18:02:45.024Z,7.69
2023-03-02T18:05:53.098Z,7.55
2023-03-02T18:09:03.201Z,7.31
2023-03-02T18:12:11.965Z,7.23
2023-03-02T18:15:17.934Z,7.13
2023-03-02T18:18:24.970Z,7.08
2023-03-02T18:21:33.227Z,7.03
2023-03-02T18:24:40.866Z,7.20
2023-03-02T18:27:46.870Z,7.16
2023-03-02T18:30:54.032Z,7.05
2023-03-02T18:34:00.385Z,7.06
2023-03-02T18:37:09.486Z,7.02
2023-03-02T18:40:17.288Z,7.02
2023-03-02T18:43:23.889Z,6.80
2023-03-02T18:46:32.528Z,6.69
2023-03-02T18:49:44.329Z,6.74
2023-03-02T18:52:54.323Z,6.59
2023-03-02T18:56:01.064Z,6.55
2023-03-02T18:59:10.449Z,6.55
2023-03-02T19:02:16.754Z,6.50
2023-03-02T19:05:20.787Z,6.29
2023-03-02T19:08:26.978Z,6.29
2023-03-02T19:11:35.500Z,6.11
2023-03-02T19:14:46.465Z,6.06
2023-03-02T19:17:54.195Z,5.90
2023-03-02T19:21:00.508Z,5.75
2023-03-02T19:24:08.102Z,5.65
2023-03-02T19:27:13.329Z,5.59
2023-03-02T19:30:20.227Z,5.58
2023-03-02T19:33:26.046Z,5.46
2023-03-02T19:36:33.873Z,5.49
2023-03-02T19:39:40.522Z,5.62
2023-03-02T19:42:47.886Z,5.49
2023-03-02T19:45:55.633Z,5.47
2023-03-02T19:49:05.745Z,5.71
2023-03-02T19:52:16.218Z,5.89
2023-03-02T19:55:27.058Z,5.84
2023-03-02T19:58:35.529Z,5.69
2023-03-02T20:01:46.754Z,5.69
2023-03-02T20:04:55.604Z,5.88
2023-03-02T20:08:06.229Z,6.04
2023-03-02T20:11:19.616Z,6.05
2023-03-02T20:14:33.817Z,6.15
2023-03-02T20:17:42.063Z,6.09
2023-03-02T20:20:49.869Z,5.84
2023-03-02T20:23:55.862Z,5.87
2023-03-02T20:27:03.535Z,5.74
2023-03-02T20:30:17.577Z,5.54
2023-03-02T20:33:30.681Z,5.38
2023-03-02T20:36:36.811Z,5.17
2023-03-02T20:39:43.446Z,5.02
2023-03-02T20:42:51.090Z,4.90
2023-03-02T20:46:02.135Z,4.78
2023-03-02T20:49:11.050Z,4.69
2023-03-02T20:52:17.905Z,4.64
2023-03-02T20:55:23.432Z,4.54
2023-03-02T20:58:30.743Z,4.43
2023-03-02T21:01:39.705Z,4.36
2023-03-02T21:04:46.209Z,4.24
2023-03-02T21:07:56.263Z,4.19
2023-03-02T21:11:06.011Z,4.12
2023-03-02T21:14:16.372Z,4.07
2023-03-02T21:17:25.638Z,4.03
2023-03-02T21:20:38.060Z,4.00
2023-03-02T21:23:44.687Z,3.98
2023-03-02T21:26:55.130Z,3.97
2023-03-02T21:30:04.134Z,3.94
2023-03-02T21:33:14.959Z,3.90
2023-03-02T21:36:25.700Z,3.87
2023-03-02T21:39:35.957Z,3.84
2023-03-02T21:42:46.224Z,3.80
2023-03-02T21:46:00.809Z,3.79
2023-03-02T21:49:09.001Z,3.77
2023-03-02T21:52:16.925Z,3.67
2023-03-02T21:55:22.567Z,3.63
2023-03-02T21:58:29.331Z,3.55
2023-03-02T22:01:38.302Z,3.54
2023-03-02T22:04:46.265Z,3.48
2023-03-02T22:07:56.854Z,3.42
2023-03-02T22:11:08.142Z,3.33
2023-03-02T22:14:19.976Z,3.26
2023-03-02T22:17:27.909Z,3.28
2023-03-02T22:20:42.766Z,3.26
2023-03-02T22:23:53.164Z,3.22
2023-03-02T22:27:02.776Z,3.17
2023-03-02T22:30:18.082Z,3.17
2023-03-02T22:33:30.004Z,3.23
2023-03-02T22:36:39.105Z,3.19
2023-03-02T22:39:47.042Z,3.21
2023-03-02T22:43:03.915Z,3.13
2023-03-02T22:46:12.857Z,3.04
2023-03-02T22:49:22.147Z,3.08
2023-03-02T22:52:35.589Z,3.04
2023-03-02T22:55:44.466Z,2.97
2023-03-02T22:58:50.638Z,2.92
2023-03-02T23:02:01.612Z,2.86
2023-03-02T23:05:22.782Z,2.79
2023-03-02T23:08:30.295Z,2.76
2023-03-02T23:11:38.688Z,2.69
2023-03-02T23:14:44.960Z,2.66
2023-03-02T23:17:53.243Z,2.63
2023-03-02T23:20:58.742Z,2.58
2023-03-02T23:24:03.895Z,2.59
2023-03-02T23:27:11.109Z,2.56
2023-03-02T23:30:23.249Z,2.47
2023-03-02T23:33:31.571Z,2.44
2023-03-02T23:36:38.332Z,2.44
2023-03-02T23:39:47.321Z,2.42
2023-03-02T23:42:54.066Z,2.47
2023-03-02T23:46:02.778Z,2.53
2023-03-02T23:49:10.650Z,2.49
2023-03-02T23:52:18.963Z,2.44
2023-03-02T23:55:27.249Z,2.35
2023-03-02T23:58:39.372Z,2.29
